createdAt,value
2018-01-21T00:01:06.702Z,44.07
2018-01-21T00:03:34.178Z,40.40
2018-01-21T00:06:01.653Z,40.47
2018-01-21T00:08:29.893Z,33.53
2018-01-21T00:10:57.365Z,41.87
2018-01-21T00:13:26.045Z,46.37
2018-01-21T00:15:54.955Z,44.80
2018-01-21T00:18:23.623Z,42.97
2018-01-21T00:20:51.105Z,37.47
2018-01-21T00:23:18.589Z,35.30
2018-01-21T00:25:46.075Z,33.17
2018-01-21T00:28:13.565Z,38.00
2018-01-21T00:30:41.037Z,34.47
2018-01-21T00:33:08.658Z,32.17
2018-01-21T00:35:36.129Z,33.80
2018-01-21T00:38:03.633Z,29.23
2018-01-21T00:40:31.869Z,31.00
2018-01-21T00:42:59.355Z,30.00
2018-01-21T00:45:27.592Z,29.40
2018-01-21T00:47:55.063Z,30.43
2018-01-21T00:50:22.518Z,31.37
2018-01-21T00:52:50.064Z,29.33
2018-01-21T00:55:17.552Z,30.47
2018-01-21T00:57:45.020Z,29.97
2018-01-21T01:00:13.254Z,31.30
2018-01-21T01:02:40.758Z,29.87
2018-01-21T01:05:09.022Z,31.17
2018-01-21T01:07:36.498Z,29.40
2018-01-21T01:10:04.733Z,30.77
2018-01-21T01:12:32.222Z,27.43
2018-01-21T01:14:59.687Z,31.87
2018-01-21T01:17:27.147Z,32.73
2018-01-21T01:19:55.394Z,35.80
2018-01-21T01:22:22.857Z,37.90
2018-01-21T01:24:50.340Z,36.03
2018-01-21T01:27:18.592Z,37.20
2018-01-21T01:29:46.061Z,36.90
2018-01-21T01:32:19.339Z,37.80
2018-01-21T01:34:46.848Z,35.90
2018-01-21T01:37:15.082Z,38.70
2018-01-21T01:39:42.570Z,36.17
2018-01-21T01:42:10.811Z,37.87
2018-01-21T01:44:38.857Z,33.53
2018-01-21T01:47:06.318Z,34.63
2018-01-21T01:49:33.800Z,35.20
2018-01-21T01:52:01.258Z,32.43
2018-01-21T01:54:28.736Z,36.67
2018-01-21T01:56:57.001Z,32.47
2018-01-21T01:59:24.474Z,34.03
2018-01-21T02:01:51.958Z,39.43
2018-01-21T02:04:20.234Z,37.07
2018-01-21T02:06:48.469Z,32.00
2018-01-21T02:09:15.942Z,31.33
2018-01-21T02:11:43.415Z,32.03
2018-01-21T02:14:11.662Z,31.50
2018-01-21T02:16:39.158Z,32.30
2018-01-21T02:19:07.395Z,32.97
2018-01-21T02:21:34.861Z,37.17
2018-01-21T02:24:02.317Z,36.07
2018-01-21T02:26:29.786Z,37.70
2018-01-21T02:28:57.284Z,36.80
2018-01-21T02:31:24.745Z,33.17
2018-01-21T02:33:52.215Z,34.43
2018-01-21T02:36:19.685Z,32.00
2018-01-21T02:38:47.159Z,33.03
2018-01-21T02:41:14.648Z,31.70
2018-01-21T02:43:42.891Z,31.53
2018-01-21T02:46:10.363Z,27.40
2018-01-21T02:48:37.822Z,25.17
2018-01-21T02:51:05.453Z,28.77
2018-01-21T02:53:33.964Z,28.33
2018-01-21T02:56:01.468Z,32.80
2018-01-21T02:58:28.956Z,33.97
2018-01-21T03:00:56.605Z,34.03
2018-01-21T03:03:24.071Z,34.20
2018-01-21T03:05:51.554Z,40.63
2018-01-21T03:08:19.033Z,35.30
2018-01-21T03:10:46.523Z,36.47
2018-01-21T03:13:13.984Z,35.70
2018-01-21T03:15:41.449Z,37.50
2018-01-21T03:18:08.913Z,37.93
2018-01-21T03:20:36.388Z,32.57
2018-01-21T03:23:03.849Z,39.20
2018-01-21T03:25:31.325Z,37.23
2018-01-21T03:27:58.796Z,34.30
2018-01-21T03:30:26.278Z,30.30
2018-01-21T03:32:54.507Z,32.13
2018-01-21T03:35:21.990Z,31.17
2018-01-21T03:37:50.621Z,26.40
2018-01-21T03:40:18.085Z,30.90
2018-01-21T03:42:45.562Z,27.53
2018-01-21T03:45:13.026Z,26.43
2018-01-21T03:47:40.527Z,29.37
2018-01-21T03:50:08.200Z,29.30
2018-01-21T03:52:35.757Z,29.20
2018-01-21T03:55:03.987Z,27.80
2018-01-21T03:57:31.466Z,27.23
2018-01-21T03:59:58.942Z,31.23
2018-01-21T04:02:27.283Z,30.00
2018-01-21T04:04:54.813Z,33.00
2018-01-21T04:07:22.319Z,33.47
2018-01-21T04:09:49.786Z,36.53
2018-01-21T04:12:18.099Z,31.20
2018-01-21T04:14:45.569Z,34.40
2018-01-21T04:17:13.063Z,29.70
2018-01-21T04:19:40.544Z,34.83
2018-01-21T04:22:08.007Z,37.53
2018-01-21T04:24:36.253Z,34.30
2018-01-21T04:27:03.723Z,33.10
2018-01-21T04:29:31.218Z,32.00
2018-01-21T04:31:58.707Z,32.87
2018-01-21T04:34:26.153Z,27.83
2018-01-21T04:36:53.637Z,26.80
2018-01-21T04:39:21.114Z,27.53
2018-01-21T04:41:49.285Z,28.73
2018-01-21T04:44:16.745Z,28.97
2018-01-21T04:46:44.213Z,28.10
2018-01-21T04:49:11.674Z,26.40
2018-01-21T04:51:39.168Z,24.03
2018-01-21T04:54:06.658Z,24.20
2018-01-21T04:56:34.125Z,24.80
2018-01-21T04:59:01.596Z,23.80
2018-01-21T05:01:29.050Z,25.43
2018-01-21T05:03:56.527Z,27.33
2018-01-21T05:06:24.774Z,26.83
2018-01-21T05:08:52.238Z,24.53
2018-01-21T05:11:19.702Z,25.63
2018-01-21T05:13:47.165Z,25.87
2018-01-21T05:16:14.666Z,25.57
2018-01-21T05:18:42.179Z,26.20
2018-01-21T05:21:09.652Z,27.00
2018-01-21T05:23:37.140Z,27.10
2018-01-21T05:26:05.067Z,22.60
2018-01-21T05:28:32.528Z,24.87
2018-01-21T05:31:00.018Z,24.67
2018-01-21T05:33:28.293Z,25.67
2018-01-21T05:35:56.526Z,25.60
2018-01-21T05:38:23.985Z,24.10
2018-01-21T05:40:51.491Z,23.73
2018-01-21T05:43:19.725Z,22.80
2018-01-21T05:45:47.209Z,24.03
2018-01-21T05:48:15.502Z,24.57
2018-01-21T05:50:43.726Z,25.90
2018-01-21T05:53:11.181Z,26.30
2018-01-21T05:55:38.662Z,25.07
2018-01-21T05:58:06.155Z,25.60
2018-01-21T06:00:34.420Z,22.60
2018-01-21T06:03:02.655Z,23.47
2018-01-21T06:05:30.134Z,25.50
2018-01-21T06:07:57.599Z,20.33
2018-01-21T06:10:25.842Z,22.50
2018-01-21T06:12:53.298Z,21.10
2018-01-21T06:15:20.767Z,26.93
2018-01-21T06:17:48.711Z,23.70
2018-01-21T06:20:16.168Z,22.97
2018-01-21T06:22:43.638Z,19.77
2018-01-21T06:25:11.142Z,23.33
2018-01-21T06:27:39.368Z,22.83
2018-01-21T06:30:06.887Z,22.90
2018-01-21T06:32:34.378Z,26.97
2018-01-21T06:35:01.888Z,25.57
2018-01-21T06:37:29.384Z,29.53
2018-01-21T06:39:56.849Z,25.70
2018-01-21T06:42:24.344Z,21.50
2018-01-21T06:44:51.869Z,26.03
2018-01-21T06:47:19.372Z,25.33
2018-01-21T06:49:46.855Z,22.27
2018-01-21T06:52:15.095Z,25.20
2018-01-21T06:54:42.590Z,26.40
2018-01-21T06:57:10.825Z,28.60
2018-01-21T06:59:38.317Z,25.60
2018-01-21T07:02:06.556Z,27.07
2018-01-21T07:04:34.019Z,29.70
2018-01-21T07:07:01.479Z,27.37
2018-01-21T07:09:28.944Z,27.33
2018-01-21T07:11:56.441Z,28.87
2018-01-21T07:14:24.690Z,29.13
2018-01-21T07:16:52.187Z,27.60
2018-01-21T07:19:19.637Z,29.30
2018-01-21T07:21:47.106Z,27.23
2018-01-21T07:24:14.576Z,31.97
2018-01-21T07:26:42.056Z,30.90
2018-01-21T07:29:09.533Z,29.67
2018-01-21T07:31:37.006Z,27.97
2018-01-21T07:34:04.489Z,30.07
2018-01-21T07:36:31.983Z,30.47
2018-01-21T07:38:59.653Z,30.60
2018-01-21T07:41:27.148Z,28.77
2018-01-21T07:43:54.628Z,31.90
2018-01-21T07:46:22.851Z,27.97
2018-01-21T07:48:50.358Z,31.27
2018-01-21T07:51:18.596Z,32.00
2018-01-21T07:53:46.066Z,30.50
2018-01-21T07:56:13.529Z,30.30
2018-01-21T07:58:41.808Z,32.13
2018-01-21T08:01:09.266Z,28.17
2018-01-21T08:03:36.738Z,30.33
2018-01-21T08:06:05.848Z,29.63
2018-01-21T08:08:33.317Z,31.30
2018-01-21T08:11:00.821Z,31.77
2018-01-21T08:13:28.294Z,34.00
2018-01-21T08:15:55.769Z,28.97
2018-01-21T08:18:24.014Z,23.93
2018-01-21T08:20:51.495Z,21.97
2018-01-21T08:23:18.946Z,19.33
2018-01-21T08:25:46.425Z,17.70
2018-01-21T08:28:14.666Z,17.20
2018-01-21T08:30:42.194Z,17.77
2018-01-21T08:33:09.671Z,16.77
2018-01-21T08:35:42.834Z,17.77
2018-01-21T08:38:16.460Z,17.17
2018-01-21T08:40:49.549Z,20.80
2018-01-21T08:43:17.026Z,23.03
2018-01-21T08:45:44.515Z,22.23
2018-01-21T08:48:12.760Z,20.30
2018-01-21T08:50:40.239Z,20.80
2018-01-21T08:53:07.746Z,21.27
2018-01-21T08:55:35.212Z,23.17
2018-01-21T08:58:02.686Z,18.60
2018-01-21T09:00:30.141Z,18.60
2018-01-21T09:02:57.618Z,22.00
2018-01-21T09:05:25.075Z,19.03
2018-01-21T09:07:53.479Z,19.17
2018-01-21T09:10:21.713Z,17.03
2018-01-21T09:12:49.188Z,20.73
2018-01-21T09:15:16.644Z,20.13
2018-01-21T09:17:44.942Z,22.10
2018-01-21T09:20:12.430Z,21.40
2018-01-21T09:22:39.898Z,20.83
2018-01-21T09:25:07.370Z,21.90
2018-01-21T09:27:34.863Z,19.57
2018-01-21T09:30:02.371Z,19.07
2018-01-21T09:32:29.859Z,19.67
2018-01-21T09:34:57.344Z,22.57
2018-01-21T09:37:24.816Z,16.70
2018-01-21T09:39:53.068Z,19.20
2018-01-21T09:42:20.535Z,20.97
2018-01-21T09:44:48.014Z,21.00
2018-01-21T09:47:16.249Z,19.43
2018-01-21T09:49:43.867Z,18.07
2018-01-21T09:52:11.331Z,16.60
2018-01-21T09:54:38.888Z,16.00
2018-01-21T09:57:06.444Z,16.80
2018-01-21T09:59:33.894Z,17.60
2018-01-21T10:02:01.479Z,16.00
2018-01-21T10:04:28.950Z,17.70
2018-01-21T10:06:56.445Z,17.00
2018-01-21T10:09:23.937Z,14.97
2018-01-21T10:11:51.428Z,15.53
2018-01-21T10:14:18.911Z,14.57
2018-01-21T10:16:46.454Z,15.80
2018-01-21T10:19:13.930Z,15.20
2018-01-21T10:21:41.454Z,15.10
2018-01-21T10:24:08.914Z,14.40
2018-01-21T10:26:36.419Z,12.87
2018-01-21T10:29:04.218Z,14.67
2018-01-21T10:31:31.727Z,13.40
2018-01-21T10:34:00.356Z,12.77
2018-01-21T10:36:28.585Z,13.17
2018-01-21T10:38:56.166Z,15.03
2018-01-21T10:41:24.390Z,14.23
2018-01-21T10:43:53.996Z,15.07
2018-01-21T10:46:21.655Z,15.80
2018-01-21T10:48:49.140Z,14.03
2018-01-21T10:51:16.690Z,12.20
2018-01-21T10:53:45.222Z,13.90
2018-01-21T10:56:13.423Z,14.07
2018-01-21T10:58:42.245Z,12.10
2018-01-21T11:01:09.747Z,14.50
2018-01-21T11:03:37.262Z,11.87
2018-01-21T11:06:05.358Z,13.80
2018-01-21T11:08:32.810Z,14.63
2018-01-21T11:11:00.308Z,15.90
2018-01-21T11:13:28.540Z,16.63
2018-01-21T11:15:56.012Z,14.10
2018-01-21T11:18:23.505Z,14.07
2018-01-21T11:20:51.004Z,15.63
2018-01-21T11:23:18.462Z,14.30
2018-01-21T11:25:45.942Z,14.80
2018-01-21T11:28:13.439Z,14.87
2018-01-21T11:30:41.663Z,14.67
2018-01-21T11:33:09.146Z,15.83
2018-01-21T11:35:36.601Z,15.00
2018-01-21T11:38:04.084Z,12.03
2018-01-21T11:40:32.328Z,13.13
2018-01-21T11:42:59.824Z,12.57
2018-01-21T11:45:28.114Z,11.90
2018-01-21T11:47:55.620Z,12.50
2018-01-21T11:50:23.084Z,13.90
2018-01-21T11:52:51.554Z,12.83
2018-01-21T11:55:19.093Z,13.87
2018-01-21T11:57:47.717Z,13.30
2018-01-21T12:00:15.232Z,11.90
2018-01-21T12:02:42.695Z,13.10
2018-01-21T12:05:10.169Z,12.77
2018-01-21T12:07:37.627Z,12.93
2018-01-21T12:10:05.102Z,12.13
2018-01-21T12:12:32.585Z,12.87
2018-01-21T12:15:00.075Z,13.90
2018-01-21T12:17:27.550Z,13.43
2018-01-21T12:19:55.076Z,12.57
2018-01-21T12:22:23.312Z,12.90
2018-01-21T12:24:50.794Z,15.83
2018-01-21T12:27:18.274Z,15.13
2018-01-21T12:29:46.498Z,14.47
2018-01-21T12:32:13.994Z,14.47
2018-01-21T12:34:41.523Z,12.43
2018-01-21T12:37:09.007Z,11.73
2018-01-21T12:39:36.495Z,15.00
2018-01-21T12:42:03.989Z,14.30
2018-01-21T12:44:31.483Z,12.27
2018-01-21T12:46:58.944Z,12.57
2018-01-21T12:49:26.461Z,13.00
2018-01-21T12:51:53.931Z,12.27
2018-01-21T12:54:21.408Z,12.40
2018-01-21T12:56:49.022Z,13.10
2018-01-21T12:59:16.551Z,11.87
2018-01-21T13:01:44.817Z,12.80
2018-01-21T13:04:12.314Z,11.40
2018-01-21T13:06:39.782Z,10.70
2018-01-21T13:09:07.243Z,11.43
2018-01-21T13:11:34.779Z,11.83
2018-01-21T13:14:03.079Z,13.33
2018-01-21T13:16:30.554Z,11.80
2018-01-21T13:18:58.011Z,9.70
2018-01-21T13:21:25.577Z,11.70
2018-01-21T13:23:53.067Z,11.10
2018-01-21T13:26:20.538Z,11.30
2018-01-21T13:28:48.763Z,12.33
2018-01-21T13:31:16.240Z,12.47
2018-01-21T13:33:43.750Z,11.20
2018-01-21T13:36:11.257Z,11.40
2018-01-21T13:38:38.731Z,10.43
2018-01-21T13:41:06.182Z,9.80
2018-01-21T13:43:33.653Z,10.40
2018-01-21T13:46:01.630Z,10.27
2018-01-21T13:48:29.884Z,10.53
2018-01-21T13:50:57.579Z,13.63
2018-01-21T13:53:25.053Z,11.17
2018-01-21T13:55:52.520Z,9.80
2018-01-21T13:58:19.990Z,9.80
2018-01-21T14:00:47.461Z,12.33
2018-01-21T14:03:14.959Z,10.73
2018-01-21T14:05:43.179Z,9.03
2018-01-21T14:08:10.678Z,10.10
2018-01-21T14:10:38.160Z,10.40
2018-01-21T14:13:06.397Z,9.17
2018-01-21T14:15:33.897Z,10.30
2018-01-21T14:18:02.173Z,10.00
2018-01-21T14:20:30.448Z,8.83
2018-01-21T14:22:58.667Z,9.37
2018-01-21T14:25:26.140Z,11.67
2018-01-21T14:27:53.621Z,10.70
2018-01-21T14:30:21.098Z,9.97
2018-01-21T14:32:49.350Z,11.47
2018-01-21T14:35:16.836Z,13.20
2018-01-21T14:37:45.084Z,11.77
2018-01-21T14:40:12.558Z,11.60
2018-01-21T14:42:40.025Z,12.00
2018-01-21T14:45:08.277Z,11.00
2018-01-21T14:47:35.754Z,11.47
2018-01-21T14:50:04.026Z,11.37
2018-01-21T14:52:31.481Z,12.20
2018-01-21T14:54:58.954Z,12.10
2018-01-21T14:57:26.431Z,12.23
2018-01-21T14:59:53.938Z,10.30
2018-01-21T15:02:21.410Z,10.50
2018-01-21T15:04:48.874Z,12.10
2018-01-21T15:07:16.416Z,11.20
2018-01-21T15:09:43.882Z,11.40
2018-01-21T15:12:12.134Z,10.43
2018-01-21T15:14:39.743Z,10.20
2018-01-21T15:17:07.220Z,10.33
2018-01-21T15:19:34.719Z,9.57
2018-01-21T15:22:02.179Z,9.97
2018-01-21T15:24:29.707Z,8.80
2018-01-21T15:26:57.167Z,9.20
2018-01-21T15:29:24.676Z,9.80
2018-01-21T15:31:52.137Z,8.93
2018-01-21T15:34:19.635Z,8.60
2018-01-21T15:36:47.102Z,9.13
2018-01-21T15:39:14.573Z,7.93
2018-01-21T15:41:42.047Z,9.03
2018-01-21T15:44:09.546Z,9.33
2018-01-21T15:46:37.782Z,10.43
2018-01-21T15:49:05.258Z,9.03
2018-01-21T15:51:32.729Z,10.73
2018-01-21T15:54:00.198Z,9.60
2018-01-21T15:56:28.438Z,9.20
2018-01-21T15:58:55.906Z,8.10
2018-01-21T16:01:23.378Z,9.10
2018-01-21T16:03:50.851Z,8.80
2018-01-21T16:06:19.106Z,7.70
2018-01-21T16:08:46.578Z,8.90
2018-01-21T16:11:14.047Z,8.53
2018-01-21T16:13:42.290Z,9.20
2018-01-21T16:16:09.807Z,8.10
2018-01-21T16:18:37.279Z,8.60
2018-01-21T16:21:04.790Z,8.30
2018-01-21T16:23:33.122Z,10.50
2018-01-21T16:26:00.610Z,8.77
2018-01-21T16:28:28.089Z,7.73
2018-01-21T16:30:55.553Z,7.10
2018-01-21T16:33:23.828Z,7.20
2018-01-21T16:35:52.108Z,7.57
2018-01-21T16:38:32.102Z,6.80
2018-01-21T16:40:59.576Z,8.13
2018-01-21T16:43:27.065Z,7.30
2018-01-21T16:45:54.546Z,7.37
2018-01-21T16:48:22.032Z,7.33
2018-01-21T16:50:49.491Z,8.83
2018-01-21T16:53:16.970Z,8.13
2018-01-21T16:55:44.427Z,10.07
2018-01-21T16:58:11.940Z,9.53
2018-01-21T17:00:40.163Z,9.10
2018-01-21T17:03:08.418Z,9.90
2018-01-21T17:05:35.885Z,10.63
2018-01-21T17:08:03.387Z,12.13
2018-01-21T17:10:30.866Z,13.83
2018-01-21T17:12:59.578Z,11.07
2018-01-21T17:15:27.123Z,11.33
2018-01-21T17:17:55.390Z,12.10
2018-01-21T17:20:23.636Z,13.50
2018-01-21T17:22:51.112Z,11.27
2018-01-21T17:25:18.588Z,12.80
2018-01-21T17:27:46.815Z,13.03
2018-01-21T17:30:14.316Z,13.73
2018-01-21T17:32:41.776Z,13.37
2018-01-21T17:35:10.059Z,13.90
2018-01-21T17:37:37.530Z,13.93
2018-01-21T17:40:04.977Z,13.87
2018-01-21T17:42:32.464Z,18.60
2018-01-21T17:44:59.936Z,18.30
2018-01-21T17:47:27.414Z,16.47
2018-01-21T17:49:54.907Z,17.57
2018-01-21T17:52:23.171Z,16.90
2018-01-21T17:54:50.675Z,17.70
2018-01-21T17:57:18.151Z,15.20
2018-01-21T17:59:45.628Z,15.67
2018-01-21T18:02:13.126Z,14.70
2018-01-21T18:04:41.348Z,15.30
2018-01-21T18:07:08.847Z,14.70
2018-01-21T18:09:37.071Z,14.73
2018-01-21T18:12:04.534Z,17.70
2018-01-21T18:14:32.019Z,15.43
2018-01-21T18:16:59.494Z,13.47
2018-01-21T18:19:27.741Z,13.53
2018-01-21T18:21:55.223Z,16.80
2018-01-21T18:24:22.724Z,19.13
2018-01-21T18:26:50.690Z,16.20
2018-01-21T18:29:18.327Z,15.30
2018-01-21T18:31:46.546Z,17.47
2018-01-21T18:34:14.154Z,13.30
2018-01-21T18:36:41.605Z,15.70
2018-01-21T18:39:09.088Z,12.77
2018-01-21T18:41:37.947Z,14.30
2018-01-21T18:44:05.619Z,14.03
2018-01-21T18:46:33.562Z,12.63
2018-01-21T18:49:01.857Z,12.07
2018-01-21T18:51:29.325Z,14.87
2018-01-21T18:53:56.786Z,14.13
2018-01-21T18:56:24.261Z,14.17
2018-01-21T18:58:52.494Z,12.80
2018-01-21T19:01:19.974Z,15.07
2018-01-21T19:03:47.551Z,15.50
2018-01-21T19:06:15.800Z,15.30
2018-01-21T19:08:43.313Z,14.03
2018-01-21T19:11:11.593Z,13.47
2018-01-21T19:13:39.447Z,12.80
2018-01-21T19:16:06.922Z,12.37
2018-01-21T19:18:34.414Z,12.43
2018-01-21T19:21:01.891Z,13.23
2018-01-21T19:23:29.365Z,13.00
2018-01-21T19:25:57.618Z,14.00
2018-01-21T19:28:25.075Z,11.60
2018-01-21T19:30:52.579Z,12.87
2018-01-21T19:33:20.067Z,12.37
2018-01-21T19:35:47.563Z,11.83
2018-01-21T19:38:20.802Z,10.40
2018-01-21T19:40:49.898Z,11.37
2018-01-21T19:43:18.005Z,12.53
2018-01-21T19:45:46.004Z,12.20
2018-01-21T19:48:13.695Z,11.37
2018-01-21T19:50:41.886Z,10.90
2018-01-21T19:53:09.495Z,11.50
2018-01-21T19:55:37.858Z,12.43
2018-01-21T19:58:06.210Z,13.13
2018-01-21T20:00:33.687Z,12.20
2018-01-21T20:03:01.767Z,12.40
2018-01-21T20:05:29.494Z,10.40
2018-01-21T20:07:57.000Z,12.10
2018-01-21T20:10:24.565Z,10.50
2018-01-21T20:12:52.912Z,11.93
2018-01-21T20:15:21.273Z,12.73
2018-01-21T20:17:48.749Z,12.27
2018-01-21T20:20:16.231Z,11.57
2018-01-21T20:22:43.748Z,11.63
2018-01-21T20:25:12.269Z,9.20
2018-01-21T20:27:39.824Z,9.90
2018-01-21T20:30:07.294Z,9.30
2018-01-21T20:32:34.743Z,8.90
2018-01-21T20:35:02.401Z,8.20
2018-01-21T20:37:30.055Z,8.70
2018-01-21T20:39:57.547Z,9.40
2018-01-21T20:42:25.019Z,8.67
2018-01-21T20:44:52.512Z,8.60
2018-01-21T20:47:20.105Z,8.73
2018-01-21T20:49:47.569Z,7.80
2018-01-21T20:52:20.630Z,10.00
2018-01-21T20:54:48.109Z,6.73
2018-01-21T20:57:15.605Z,7.17
2018-01-21T20:59:43.050Z,7.40
2018-01-21T21:02:10.521Z,6.70
2018-01-21T21:04:38.750Z,4.93
2018-01-21T21:07:06.335Z,4.83
2018-01-21T21:09:33.829Z,4.80
2018-01-21T21:12:02.109Z,5.83
2018-01-21T21:14:30.346Z,6.10
2018-01-21T21:16:57.880Z,4.40
2018-01-21T21:19:25.373Z,5.33
2018-01-21T21:21:52.836Z,5.40
2018-01-21T21:24:20.327Z,5.77
2018-01-21T21:26:47.813Z,4.00
2018-01-21T21:29:15.289Z,3.73
2018-01-21T21:31:42.775Z,5.60
2018-01-21T21:34:10.266Z,5.53
2018-01-21T21:36:37.734Z,5.57
2018-01-21T21:39:05.221Z,5.07
2018-01-21T21:41:32.695Z,6.20
2018-01-21T21:44:00.178Z,6.07
2018-01-21T21:46:28.414Z,6.47
2018-01-21T21:48:55.898Z,5.47
2018-01-21T21:51:23.349Z,4.17
2018-01-21T21:53:50.811Z,4.93
2018-01-21T21:56:18.288Z,5.60
2018-01-21T21:58:46.509Z,4.97
2018-01-21T22:01:13.974Z,5.50
2018-01-21T22:03:41.458Z,6.80
2018-01-21T22:06:08.909Z,7.37
2018-01-21T22:08:36.382Z,6.10
2018-01-21T22:11:03.837Z,6.00
2018-01-21T22:13:31.294Z,6.10
2018-01-21T22:15:58.881Z,6.20
2018-01-21T22:18:27.145Z,7.43
2018-01-21T22:20:54.589Z,5.80
2018-01-21T22:23:22.070Z,6.47
2018-01-21T22:25:50.282Z,5.50
2018-01-21T22:28:17.747Z,4.77
2018-01-21T22:30:45.218Z,5.43
2018-01-21T22:33:12.657Z,4.90
2018-01-21T22:35:40.138Z,5.90
2018-01-21T22:38:07.609Z,4.63
2018-01-21T22:40:35.083Z,5.43
2018-01-21T22:43:02.550Z,5.47
2018-01-21T22:45:30.802Z,4.43
2018-01-21T22:47:58.244Z,5.10
2018-01-21T22:50:25.734Z,4.50
2018-01-21T22:52:53.960Z,5.20
2018-01-21T22:55:21.427Z,4.80
2018-01-21T22:57:49.278Z,5.60
2018-01-21T23:00:16.761Z,4.20
2018-01-21T23:02:44.204Z,5.20
2018-01-21T23:05:11.650Z,4.47
2018-01-21T23:07:39.120Z,4.60
2018-01-21T23:10:06.589Z,5.30
2018-01-21T23:12:34.072Z,4.90
2018-01-21T23:15:01.621Z,4.93
2018-01-21T23:17:29.087Z,5.80
2018-01-21T23:19:56.554Z,5.67
2018-01-21T23:22:24.031Z,4.63
2018-01-21T23:24:52.253Z,4.00
2018-01-21T23:27:19.722Z,3.67
2018-01-21T23:29:47.179Z,3.10
2018-01-21T23:32:14.632Z,4.17
2018-01-21T23:34:42.104Z,3.67
2018-01-21T23:37:09.561Z,4.40
2018-01-21T23:39:37.042Z,4.20
2018-01-21T23:42:04.514Z,5.77
2018-01-21T23:44:32.746Z,6.07
2018-01-21T23:47:00.226Z,6.87
2018-01-21T23:49:27.707Z,6.17
2018-01-21T23:51:55.931Z,6.43
2018-01-21T23:54:23.409Z,7.67
2018-01-21T23:56:50.876Z,6.73
2018-01-21T23:59:18.337Z,12.40
